Time;durP1;ratioP1;P1;durP2;ratioP2;P2;SDS_P1;SDS_P2;PMS_P1;PMS_P2;Temp;Humidity;BMP_temperature;BMP_pressure;BME280_temperature;BME280_humidity;BME280_pressure;Samples;Min_cycle;Max_cycle;Signal;HPM_P1;HPM_P2
2020/12/30 00:02:26;;;;;;;28.53;16.00;;;2.40;94.10;;;;;;4406697;32;20159;-63
2020/12/30 00:04:55;;;;;;;30.37;16.07;;;2.40;94.20;;;;;;4391189;32;20546;-63
2020/12/30 00:07:22;;;;;;;29.70;14.97;;;2.50;94.30;;;;;;4397307;32;20163;-66
2020/12/30 00:09:54;;;;;;;24.57;12.70;;;2.40;94.20;;;;;;4411772;32;20542;-62
2020/12/30 00:12:22;;;;;;;19.17;11.00;;;2.40;94.20;;;;;;4410178;32;20183;-63
2020/12/30 00:14:48;;;;;;;20.43;11.50;;;2.40;94.30;;;;;;4411696;32;20231;-62
2020/12/30 00:17:15;;;;;;;24.27;11.67;;;2.40;94.30;;;;;;4419573;32;20194;-65
2020/12/30 00:19:41;;;;;;;18.60;9.90;;;2.40;94.20;;;;;;4412562;32;20159;-63
2020/12/30 00:22:07;;;;;;;18.67;9.73;;;2.30;94.10;;;;;;4409892;32;20207;-63
2020/12/30 00:24:33;;;;;;;15.80;9.60;;;2.30;94.10;;;;;;4405377;32;20216;-63
2020/12/30 00:27:04;;;;;;;14.80;9.27;;;2.30;94.10;;;;;;4418470;32;20216;-65
2020/12/30 00:29:30;;;;;;;13.80;8.77;;;2.30;94.00;;;;;;4416342;32;20237;-65
2020/12/30 00:31:57;;;;;;;17.30;9.17;;;2.20;94.10;;;;;;4416595;32;20164;-64
2020/12/30 00:34:23;;;;;;;15.50;8.70;;;2.20;94.10;;;;;;4412236;32;20237;-67
2020/12/30 00:36:49;;;;;;;15.23;8.33;;;2.20;94.10;;;;;;4419999;32;20273;-64
2020/12/30 00:39:15;;;;;;;15.47;9.00;;;2.20;94.30;;;;;;4416186;32;20236;-63
2020/12/30 00:41:43;;;;;;;14.50;7.93;;;2.20;94.10;;;;;;4419390;32;20245;-63
2020/12/30 00:44:14;;;;;;;14.13;7.93;;;2.20;94.20;;;;;;4411427;32;20215;-63
2020/12/30 00:46:40;;;;;;;14.33;8.13;;;2.20;94.20;;;;;;4413575;32;20216;-63
2020/12/30 00:49:11;;;;;;;14.63;8.53;;;2.20;94.20;;;;;;4417150;32;20215;-62
2020/12/30 00:51:37;;;;;;;15.63;8.47;;;2.20;94.20;;;;;;4419521;32;20279;-63
2020/12/30 00:54:04;;;;;;;15.50;8.87;;;2.20;94.10;;;;;;4418071;32;20278;-63
2020/12/30 00:56:30;;;;;;;14.27;8.57;;;2.10;94.00;;;;;;4415597;32;20199;-65
2020/12/30 00:58:56;;;;;;;13.23;8.40;;;2.20;94.10;;;;;;4418091;32;20240;-65
2020/12/30 01:01:26;;;;;;;22.17;9.53;;;2.20;94.20;;;;;;4411909;32;20206;-64
2020/12/30 01:03:52;;;;;;;15.60;9.23;;;2.20;94.50;;;;;;4424427;32;20600;-63
2020/12/30 01:06:18;;;;;;;14.97;8.80;;;2.30;94.90;;;;;;4422197;32;20156;-64
2020/12/30 01:08:45;;;;;;;15.07;8.90;;;2.40;95.00;;;;;;4424286;32;20516;-65
2020/12/30 01:11:11;;;;;;;18.60;8.97;;;2.60;95.10;;;;;;4417334;32;20242;-63
2020/12/30 01:13:37;;;;;;;15.80;8.90;;;2.70;95.10;;;;;;4418667;32;20241;-63
2020/12/30 01:16:04;;;;;;;20.07;9.97;;;2.70;95.00;;;;;;4414030;32;20253;-63
2020/12/30 01:18:31;;;;;;;16.07;9.70;;;2.70;94.90;;;;;;4421907;32;20220;-63
2020/12/30 01:21:03;;;;;;;16.50;9.10;;;2.60;94.50;;;;;;4420205;32;20647;-63
2020/12/30 01:23:31;;;;;;;23.63;11.43;;;2.60;94.30;;;;;;4422603;32;20223;-63
2020/12/30 01:25:57;;;;;;;18.23;10.43;;;2.50;94.20;;;;;;4411640;32;20167;-63
2020/12/30 01:28:23;;;;;;;19.47;10.57;;;2.50;94.20;;;;;;4417136;32;20511;-63
2020/12/30 01:30:49;;;;;;;19.23;10.93;;;2.50;94.20;;;;;;4416591;32;20271;-63
2020/12/30 01:33:16;;;;;;;20.57;11.43;;;2.40;94.20;;;;;;4421774;32;20203;-63
2020/12/30 01:35:43;;;;;;;19.67;10.20;;;2.40;94.20;;;;;;4412852;32;20187;-63
2020/12/30 01:38:09;;;;;;;18.70;10.40;;;2.40;94.30;;;;;;4421808;32;20208;-62
2020/12/30 01:40:35;;;;;;;19.20;11.20;;;2.50;94.30;;;;;;4418601;32;20167;-63
2020/12/30 01:43:01;;;;;;;18.63;12.03;;;2.50;94.40;;;;;;4418568;32;20211;-63
2020/12/30 01:45:29;;;;;;;17.37;11.57;;;2.50;94.40;;;;;;4419689;32;20211;-62
2020/12/30 01:47:55;;;;;;;20.33;12.63;;;2.50;94.40;;;;;;4422139;32;20192;-62
2020/12/30 01:50:22;;;;;;;22.13;11.67;;;2.60;94.40;;;;;;4413813;32;20171;-63
2020/12/30 01:52:50;;;;;;;26.10;12.63;;;2.70;94.50;;;;;;4421121;32;20163;-65
2020/12/30 01:55:20;;;;;;;22.30;12.63;;;2.70;94.60;;;;;;4413357;32;20203;-63
2020/12/30 01:57:46;;;;;;;20.60;11.80;;;2.70;94.60;;;;;;4417967;32;20171;-62
2020/12/30 02:00:12;;;;;;;24.70;13.27;;;2.80;94.60;;;;;;4415582;32;20216;-62
2020/12/30 02:02:43;;;;;;;23.80;12.93;;;2.70;94.50;;;;;;4414154;32;20677;-64
2020/12/30 02:05:11;;;;;;;20.80;11.53;;;2.80;94.50;;;;;;4418783;32;20207;-64
2020/12/30 02:07:37;;;;;;;27.57;14.17;;;2.80;94.50;;;;;;4417563;32;20312;-64
2020/12/30 02:10:04;;;;;;;23.20;12.67;;;2.80;94.40;;;;;;4420836;32;20682;-63
2020/12/30 02:12:32;;;;;;;24.73;11.47;;;2.80;94.40;;;;;;4422576;32;20503;-62
2020/12/30 02:14:58;;;;;;;22.27;12.43;;;2.80;94.30;;;;;;4420777;32;20219;-63
2020/12/30 02:17:24;;;;;;;22.80;13.23;;;2.80;94.30;;;;;;4421691;32;20152;-63
2020/12/30 02:19:50;;;;;;;24.63;13.33;;;2.80;94.30;;;;;;4420595;32;20219;-62
2020/12/30 02:22:25;;;;;;;22.47;12.80;;;2.80;94.20;;;;;;4418825;32;20181;-64
2020/12/30 02:24:56;;;;;;;22.40;11.83;;;2.70;94.10;;;;;;4411997;32;20156;-63
2020/12/30 02:27:22;;;;;;;26.90;14.33;;;2.70;94.40;;;;;;4420664;32;20175;-63
2020/12/30 02:29:49;;;;;;;23.07;12.27;;;2.70;94.20;;;;;;4417937;32;20223;-64
2020/12/30 02:32:15;;;;;;;27.47;13.87;;;2.70;94.20;;;;;;4417698;32;20231;-63
2020/12/30 02:34:43;;;;;;;23.17;13.07;;;2.70;94.40;;;;;;4416343;32;20195;-63
2020/12/30 02:37:10;;;;;;;25.97;13.87;;;2.80;94.90;;;;;;4418737;32;20205;-63
2020/12/30 02:39:36;;;;;;;34.33;16.27;;;2.70;94.40;;;;;;4416487;32;20223;-63
2020/12/30 02:42:03;;;;;;;22.77;12.77;;;2.60;94.10;;;;;;4418129;32;20256;-63
2020/12/30 02:44:29;;;;;;;26.27;14.90;;;2.50;94.00;;;;;;4418283;32;20221;-63
2020/12/30 02:46:55;;;;;;;30.70;16.40;;;2.60;94.00;;;;;;4415358;32;20185;-63
2020/12/30 02:49:22;;;;;;;29.80;15.30;;;2.40;94.00;;;;;;4421477;32;20218;-63
2020/12/30 02:51:50;;;;;;;37.17;16.50;;;2.40;94.20;;;;;;4419280;32;20549;-63
2020/12/30 02:54:18;;;;;;;39.47;18.70;;;2.50;94.40;;;;;;4420230;32;20192;-63
2020/12/30 02:56:44;;;;;;;30.07;16.03;;;2.40;94.50;;;;;;4418919;32;20598;-63
2020/12/30 02:59:13;;;;;;;29.80;16.73;;;2.40;94.40;;;;;;4419497;32;20655;-63
2020/12/30 03:01:42;;;;;;;33.00;17.40;;;2.50;94.40;;;;;;4419842;32;20505;-62
2020/12/30 03:04:09;;;;;;;32.27;16.57;;;2.50;94.30;;;;;;4414362;32;20552;-64
2020/12/30 03:06:38;;;;;;;30.20;15.90;;;2.40;94.10;;;;;;4420448;32;20317;-62
2020/12/30 03:09:04;;;;;;;34.53;17.40;;;2.40;94.00;;;;;;4410718;32;20194;-63
2020/12/30 03:11:32;;;;;;;30.87;17.33;;;2.30;93.90;;;;;;4422707;32;20211;-63
2020/12/30 03:13:58;;;;;;;29.83;17.37;;;2.30;94.00;;;;;;4414130;32;20242;-63
2020/12/30 03:16:25;;;;;;;28.10;16.20;;;2.30;94.00;;;;;;4421024;32;20579;-63
2020/12/30 03:18:54;;;;;;;33.73;18.60;;;2.30;94.00;;;;;;4422012;32;20265;-63
2020/12/30 03:21:23;;;;;;;32.43;17.20;;;2.30;94.00;;;;;;4419550;32;20211;-63
2020/12/30 03:23:49;;;;;;;35.03;18.97;;;2.20;94.00;;;;;;4412990;32;20593;-63
2020/12/30 03:26:16;;;;;;;41.50;19.33;;;2.20;94.00;;;;;;4414284;32;20582;-63
2020/12/30 03:28:46;;;;;;;35.03;17.83;;;2.20;94.00;;;;;;4416884;32;20266;-63
2020/12/30 03:31:12;;;;;;;40.43;20.57;;;2.20;94.00;;;;;;4419431;32;20541;-63
2020/12/30 03:33:39;;;;;;;35.83;18.93;;;2.20;93.90;;;;;;4418623;32;20238;-63
2020/12/30 03:36:06;;;;;;;36.23;19.70;;;2.30;94.00;;;;;;4416531;32;20291;-63
2020/12/30 03:38:32;;;;;;;35.30;18.87;;;2.10;94.00;;;;;;4412883;32;20179;-63
2020/12/30 03:40:58;;;;;;;38.97;19.63;;;2.10;93.90;;;;;;4419908;32;20207;-63
2020/12/30 03:43:29;;;;;;;34.23;18.03;;;2.00;93.90;;;;;;4410190;32;20204;-63
2020/12/30 03:45:58;;;;;;;33.87;17.60;;;2.10;94.20;;;;;;4414846;32;20467;-63
2020/12/30 03:48:24;;;;;;;31.33;18.97;;;2.00;93.80;;;;;;4413094;32;20151;-63
2020/12/30 03:50:58;;;;;;;35.53;20.27;;;2.00;93.90;;;;;;4410875;32;20177;-63
2020/12/30 03:53:26;;;;;;;32.23;18.07;;;2.00;93.90;;;;;;4414038;32;20159;-63
2020/12/30 03:55:57;;;;;;;34.00;17.60;;;2.00;93.80;;;;;;4420835;32;20209;-63
2020/12/30 03:58:26;;;;;;;31.20;17.70;;;2.00;93.90;;;;;;4418070;32;20251;-63
2020/12/30 04:00:52;;;;;;;33.37;18.30;;;2.00;93.90;;;;;;4417035;32;20324;-63
2020/12/30 04:03:19;;;;;;;30.77;17.33;;;2.00;93.90;;;;;;4418685;32;20203;-63
2020/12/30 04:05:51;;;;;;;34.97;19.60;;;2.00;94.20;;;;;;4419307;32;20230;-63
2020/12/30 04:08:18;;;;;;;33.03;18.43;;;2.10;94.40;;;;;;4417880;32;20159;-63
2020/12/30 04:10:44;;;;;;;40.97;19.17;;;2.20;94.70;;;;;;4416015;32;20227;-63
2020/12/30 04:13:10;;;;;;;35.33;18.60;;;2.40;94.90;;;;;;4416206;32;20246;-63
2020/12/30 04:15:37;;;;;;;41.27;21.43;;;2.50;95.10;;;;;;4411166;32;20225;-63
2020/12/30 04:18:03;;;;;;;52.27;23.13;;;2.60;95.20;;;;;;4417601;32;20397;-63
2020/12/30 04:20:29;;;;;;;48.40;23.33;;;2.60;95.20;;;;;;4416423;32;20223;-63
2020/12/30 04:22:56;;;;;;;40.93;21.33;;;2.70;95.20;;;;;;4418586;32;20227;-63
2020/12/30 04:25:22;;;;;;;44.00;21.77;;;2.80;95.40;;;;;;4413683;32;20452;-63
2020/12/30 04:27:49;;;;;;;51.67;24.77;;;2.80;95.50;;;;;;4408135;32;20222;-63
2020/12/30 04:30:15;;;;;;;48.07;22.77;;;2.90;95.60;;;;;;4417221;32;20538;-63
2020/12/30 04:32:44;;;;;;;39.63;20.63;;;2.90;95.60;;;;;;4417080;32;20233;-63
2020/12/30 04:35:10;;;;;;;52.03;23.03;;;3.00;95.60;;;;;;4413455;32;20178;-63
2020/12/30 04:37:37;;;;;;;42.37;21.87;;;3.10;95.60;;;;;;4407104;32;20215;-63
2020/12/30 04:40:04;;;;;;;35.37;17.63;;;3.20;95.60;;;;;;4414797;32;20381;-63
2020/12/30 04:42:33;;;;;;;41.47;19.10;;;3.20;95.70;;;;;;4412285;32;20159;-63
2020/12/30 04:45:03;;;;;;;32.47;16.07;;;3.20;95.60;;;;;;4411457;32;20215;-62
2020/12/30 04:47:33;;;;;;;29.40;15.07;;;3.20;95.60;;;;;;4416582;32;20635;-63
2020/12/30 04:50:00;;;;;;;35.37;16.97;;;3.30;95.60;;;;;;4417152;32;20262;-63
2020/12/30 04:52:27;;;;;;;32.67;15.87;;;3.30;95.50;;;;;;4417057;32;20246;-62
2020/12/30 04:54:53;;;;;;;34.77;16.30;;;3.30;95.50;;;;;;4415910;32;20200;-63
2020/12/30 04:57:31;;;;;;;28.00;13.23;;;3.20;95.80;;;;;;4417147;32;20245;-62
2020/12/30 04:59:58;;;;;;;32.67;14.57;;;3.20;95.50;;;;;;4411954;32;20161;-63
2020/12/30 05:02:33;;;;;;;27.00;13.07;;;3.20;95.40;;;;;;4410189;32;20203;-63
2020/12/30 05:04:59;;;;;;;27.33;12.27;;;3.00;95.10;;;;;;4416220;32;20162;-63
2020/12/30 05:07:32;;;;;;;27.57;13.13;;;3.00;95.00;;;;;;4419634;32;20533;-63
2020/12/30 05:10:00;;;;;;;19.57;10.00;;;3.00;95.00;;;;;;4411037;32;20189;-63
2020/12/30 05:12:28;;;;;;;21.43;10.33;;;2.90;95.00;;;;;;4417428;32;20195;-63
2020/12/30 05:14:55;;;;;;;15.40;8.67;;;3.00;95.10;;;;;;4414968;32;20249;-62
2020/12/30 05:17:23;;;;;;;19.20;9.13;;;3.00;95.20;;;;;;4402768;32;20169;-63
2020/12/30 05:19:53;;;;;;;21.37;9.97;;;3.10;95.50;;;;;;4405637;32;20164;-63
2020/12/30 05:22:20;;;;;;;21.13;10.30;;;3.10;95.30;;;;;;4406341;32;20194;-62
2020/12/30 05:24:48;;;;;;;23.80;10.87;;;3.20;95.50;;;;;;4397998;32;20199;-62
2020/12/30 05:27:16;;;;;;;25.30;11.17;;;3.30;95.50;;;;;;4404883;32;20218;-63
2020/12/30 05:29:52;;;;;;;15.40;8.80;;;3.40;95.70;;;;;;4409242;32;20647;-63
2020/12/30 05:32:19;;;;;;;13.57;7.83;;;3.40;95.60;;;;;;4407400;32;20195;-63
2020/12/30 05:34:46;;;;;;;15.07;7.90;;;3.50;95.50;;;;;;4409802;32;20591;-63
2020/12/30 05:37:13;;;;;;;15.17;8.23;;;3.40;95.30;;;;;;4411594;32;20183;-64
2020/12/30 05:39:40;;;;;;;14.07;7.00;;;3.40;95.30;;;;;;4409209;32;20191;-63
2020/12/30 05:42:11;;;;;;;18.87;9.50;;;3.40;95.30;;;;;;4405095;32;20194;-63
2020/12/30 05:44:40;;;;;;;12.03;7.17;;;3.40;95.20;;;;;;4407041;32;20209;-62
2020/12/30 05:47:17;;;;;;;13.50;8.27;;;3.40;95.10;;;;;;4415332;32;20599;-62
2020/12/30 05:49:45;;;;;;;16.30;7.90;;;3.40;95.10;;;;;;4404819;32;20206;-62
2020/12/30 05:52:18;;;;;;;17.43;8.90;;;3.40;95.20;;;;;;4405783;32;20255;-62
2020/12/30 05:54:46;;;;;;;15.90;8.27;;;3.30;95.00;;;;;;4415859;32;20231;-62
2020/12/30 05:57:37;;;;;;;13.00;7.77;;;3.40;94.90;;;;;;4405288;32;20160;-62
2020/12/30 06:00:06;;;;;;;14.17;7.37;;;3.30;94.70;;;;;;4354256;32;20263;-61
2020/12/30 06:02:34;;;;;;;15.23;8.60;;;3.20;94.50;;;;;;4359574;32;20258;-63
2020/12/30 06:05:15;;;;;;;14.83;8.93;;;3.10;94.30;;;;;;4356672;32;20222;-63
2020/12/30 06:07:42;;;;;;;13.87;8.87;;;3.10;94.30;;;;;;4367735;32;20169;-63
2020/12/30 06:10:12;;;;;;;16.03;9.03;;;3.00;94.30;;;;;;4365483;32;20591;-62
2020/12/30 06:12:44;;;;;;;18.93;9.83;;;3.00;94.40;;;;;;4362078;32;20186;-64
2020/12/30 06:15:14;;;;;;;17.70;9.73;;;3.10;94.60;;;;;;4360564;32;20156;-62
2020/12/30 06:17:54;;;;;;;18.93;9.77;;;3.10;94.80;;;;;;4373035;32;20610;-62
2020/12/30 06:20:22;;;;;;;16.67;9.30;;;3.20;95.00;;;;;;4373190;32;20355;-65
2020/12/30 06:22:59;;;;;;;15.70;8.53;;;3.30;95.10;;;;;;4371153;32;20306;-65
2020/12/30 06:25:28;;;;;;;19.73;10.90;;;3.40;95.20;;;;;;4371682;32;20211;-63
2020/12/30 06:27:57;;;;;;;21.97;11.87;;;3.40;95.10;;;;;;4372851;32;20617;-63
2020/12/30 06:30:24;;;;;;;21.00;10.50;;;3.40;95.20;;;;;;4366714;32;20631;-64
2020/12/30 06:32:54;;;;;;;20.13;11.33;;;3.40;95.20;;;;;;4372028;32;20271;-64
2020/12/30 06:35:27;;;;;;;20.10;10.93;;;3.40;95.20;;;;;;4371842;32;20171;-66
2020/12/30 06:37:53;;;;;;;15.33;9.13;;;3.50;95.20;;;;;;4415034;32;20269;-62
2020/12/30 06:40:31;;;;;;;16.17;9.20;;;3.50;95.10;;;;;;4422116;32;20274;-63
2020/12/30 06:43:02;;;;;;;18.23;9.27;;;3.40;95.10;;;;;;4418590;32;20211;-62
2020/12/30 06:45:54;;;;;;;14.87;8.43;;;3.40;94.90;;;;;;4421692;32;20509;-63
2020/12/30 06:48:23;;;;;;;16.57;9.07;;;3.40;95.00;;;;;;4419239;32;20224;-62
2020/12/30 06:50:50;;;;;;;16.60;8.37;;;3.50;95.10;;;;;;4423212;32;20219;-67
2020/12/30 06:53:41;;;;;;;29.67;12.17;;;3.50;95.40;;;;;;4417690;32;20176;-66
2020/12/30 06:56:08;;;;;;;14.27;8.13;;;3.60;95.50;;;;;;4416992;32;20513;-61
2020/12/30 06:58:51;;;;;;;18.10;9.33;;;3.70;95.60;;;;;;4417733;32;20201;-67
2020/12/30 07:01:21;;;;;;;16.90;8.13;;;3.80;95.50;;;;;;4415629;32;20588;-64
2020/12/30 07:03:51;;;;;;;16.90;9.13;;;3.80;95.50;;;;;;4417815;32;20553;-64
2020/12/30 07:06:35;;;;;;;18.80;8.33;;;3.90;95.60;;;;;;4421162;32;20182;-65
2020/12/30 07:09:09;;;;;;;19.07;9.67;;;4.00;95.60;;;;;;4420879;32;20568;-65
2020/12/30 07:11:50;;;;;;;14.90;8.93;;;4.00;95.60;;;;;;4415364;32;20167;-62
2020/12/30 07:14:19;;;;;;;15.90;9.20;;;4.00;95.60;;;;;;4416641;32;20155;-64
2020/12/30 07:16:48;;;;;;;17.23;9.37;;;4.00;95.60;;;;;;4411969;32;20214;-63
2020/12/30 07:19:18;;;;;;;24.10;11.20;;;4.10;95.60;;;;;;4406898;32;20170;-63
2020/12/30 07:21:59;;;;;;;21.03;11.17;;;4.10;95.60;;;;;;4396642;32;20167;-63
2020/12/30 07:24:27;;;;;;;19.50;11.20;;;4.00;95.60;;;;;;4408101;32;20205;-64
2020/12/30 07:26:55;;;;;;;20.97;10.67;;;4.10;95.60;;;;;;4406666;32;20247;-63
2020/12/30 07:29:25;;;;;;;22.17;11.87;;;4.20;95.60;;;;;;4403360;32;20170;-67
2020/12/30 07:31:56;;;;;;;22.33;13.23;;;4.20;95.90;;;;;;4401312;32;20297;-66
2020/12/30 07:34:30;;;;;;;23.30;12.27;;;4.30;95.70;;;;;;4403938;32;20192;-63
2020/12/30 07:36:59;;;;;;;27.10;14.33;;;4.30;95.60;;;;;;4402849;32;20296;-65
2020/12/30 07:39:29;;;;;;;24.07;13.83;;;4.30;95.60;;;;;;4406643;32;20219;-65
2020/12/30 07:42:08;;;;;;;25.87;14.17;;;4.30;95.60;;;;;;4401177;32;20152;-66
2020/12/30 07:44:35;;;;;;;25.03;13.73;;;4.40;95.60;;;;;;4400032;32;20236;-63
2020/12/30 07:47:02;;;;;;;25.90;14.43;;;4.40;95.60;;;;;;4404746;32;20229;-63
2020/12/30 07:49:31;;;;;;;29.20;15.30;;;4.40;95.60;;;;;;4405563;32;20189;-62
2020/12/30 07:51:59;;;;;;;24.60;16.13;;;4.40;95.50;;;;;;4403221;32;20172;-63
2020/12/30 07:54:30;;;;;;;26.17;14.27;;;4.40;95.50;;;;;;4405779;32;20204;-64
2020/12/30 07:57:04;;;;;;;23.70;15.33;;;4.40;95.40;;;;;;4401157;32;20270;-63
2020/12/30 07:59:32;;;;;;;29.73;15.90;;;4.30;95.10;;;;;;4407175;32;20264;-65
2020/12/30 08:02:01;;;;;;;26.37;15.00;;;4.20;95.10;;;;;;4403193;32;20212;-65
2020/12/30 08:04:31;;;;;;;36.23;17.23;;;4.20;95.10;;;;;;4400376;32;20222;-65
2020/12/30 08:06:58;;;;;;;34.33;17.07;;;4.20;95.20;;;;;;4403093;32;20179;-63
2020/12/30 08:09:29;;;;;;;27.90;15.10;;;4.20;95.30;;;;;;4402348;32;20168;-63
2020/12/30 08:11:59;;;;;;;26.10;14.70;;;4.30;95.40;;;;;;4404572;32;20179;-63
2020/12/30 08:14:27;;;;;;;32.87;14.70;;;4.30;95.30;;;;;;4404715;32;20177;-62
2020/12/30 08:16:55;;;;;;;23.47;14.40;;;4.40;95.30;;;;;;4410627;32;20167;-62
2020/12/30 08:19:37;;;;;;;28.97;15.73;;;4.30;95.20;;;;;;4426555;32;20159;-62
2020/12/30 08:22:08;;;;;;;31.30;15.10;;;4.20;95.20;;;;;;4423568;32;20622;-65
2020/12/30 08:24:36;;;;;;;31.53;17.43;;;4.20;95.30;;;;;;4426829;32;20250;-63
2020/12/30 08:27:03;;;;;;;27.67;14.73;;;4.30;95.60;;;;;;4421362;32;20198;-63
2020/12/30 08:29:31;;;;;;;28.30;16.30;;;4.30;95.50;;;;;;4424986;32;20221;-64
2020/12/30 08:32:01;;;;;;;23.03;14.63;;;4.40;95.30;;;;;;4424842;32;20185;-62
2020/12/30 08:34:33;;;;;;;28.37;16.00;;;4.30;95.00;;;;;;4426101;32;20179;-65
2020/12/30 08:37:04;;;;;;;29.00;16.30;;;4.30;94.80;;;;;;4424482;32;20638;-63
2020/12/30 08:39:34;;;;;;;24.93;15.47;;;4.10;94.40;;;;;;4425686;32;20167;-64
2020/12/30 08:42:04;;;;;;;27.27;14.70;;;4.00;94.30;;;;;;4424616;32;20616;-64
2020/12/30 08:44:43;;;;;;;26.90;14.80;;;3.90;94.20;;;;;;4426869;32;20240;-63
2020/12/30 08:47:13;;;;;;;35.63;16.20;;;3.80;94.20;;;;;;4425406;32;20222;-67
2020/12/30 08:49:43;;;;;;;26.00;15.93;;;3.70;94.30;;;;;;4420134;32;20237;-64
2020/12/30 08:52:22;;;;;;;27.73;15.87;;;3.80;94.40;;;;;;4422880;32;20167;-62
2020/12/30 08:55:01;;;;;;;24.47;14.50;;;3.80;94.70;;;;;;4420941;32;20155;-63
2020/12/30 08:57:31;;;;;;;24.50;12.93;;;3.90;94.90;;;;;;4420359;32;20187;-63
2020/12/30 09:00:18;;;;;;;32.10;14.17;;;3.90;94.60;;;;;;4418849;32;20313;-63
2020/12/30 09:02:48;;;;;;;26.20;12.87;;;3.80;94.40;;;;;;4419785;32;20269;-67
2020/12/30 09:05:27;;;;;;;24.43;13.13;;;3.70;94.30;;;;;;4419290;32;20191;-61
2020/12/30 09:07:54;;;;;;;25.90;13.53;;;3.70;94.50;;;;;;4421919;32;20204;-63
2020/12/30 09:10:21;;;;;;;20.47;13.43;;;3.80;94.90;;;;;;4420933;32;20262;-67
2020/12/30 09:12:52;;;;;;;30.73;14.63;;;4.00;95.80;;;;;;4423594;32;20167;-65
2020/12/30 09:15:33;;;;;;;23.00;11.67;;;4.30;96.60;;;;;;4429493;32;20174;-63
2020/12/30 09:17:59;;;;;;;26.70;12.77;;;4.50;96.90;;;;;;4433195;32;20256;-67
2020/12/30 09:20:31;;;;;;;20.63;10.37;;;4.50;96.80;;;;;;4431129;32;20219;-66
2020/12/30 09:23:00;;;;;;;21.87;10.77;;;4.60;96.30;;;;;;4428785;32;20170;-65
2020/12/30 09:25:29;;;;;;;17.33;9.93;;;4.50;95.70;;;;;;4428022;32;20258;-63
2020/12/30 09:27:59;;;;;;;17.70;9.67;;;4.30;95.40;;;;;;4430616;32;20544;-63
2020/12/30 09:30:29;;;;;;;14.80;8.67;;;4.30;95.20;;;;;;4429453;32;20174;-64
2020/12/30 09:33:09;;;;;;;15.40;8.23;;;4.20;95.00;;;;;;4433709;32;20476;-64
2020/12/30 09:35:38;;;;;;;13.80;8.43;;;4.20;95.00;;;;;;4427934;32;20174;-66
2020/12/30 09:38:15;;;;;;;14.20;7.70;;;4.10;95.20;;;;;;4431318;32;20270;-65
2020/12/30 09:40:47;;;;;;;12.70;7.53;;;4.30;95.50;;;;;;4427123;32;20231;-63
2020/12/30 09:43:24;;;;;;;18.27;9.70;;;4.40;96.20;;;;;;4428067;32;20465;-66
2020/12/30 09:45:57;;;;;;;17.40;9.77;;;4.60;96.40;;;;;;4426498;32;20241;-64
2020/12/30 09:48:36;;;;;;;16.37;9.70;;;4.70;96.40;;;;;;4425473;32;20238;-65
2020/12/30 09:51:04;;;;;;;14.87;9.73;;;4.80;96.50;;;;;;4430201;32;20278;-64
2020/12/30 09:53:33;;;;;;;18.77;9.87;;;4.70;96.20;;;;;;4426357;32;20171;-65
2020/12/30 09:56:11;;;;;;;14.57;10.03;;;4.70;95.60;;;;;;4424608;32;20155;-63
2020/12/30 09:58:42;;;;;;;19.60;11.60;;;4.70;95.40;;;;;;4427557;32;20175;-64
2020/12/30 10:01:10;;;;;;;21.23;13.60;;;4.60;95.10;;;;;;4420094;32;20148;-67
2020/12/30 10:03:39;;;;;;;26.83;14.17;;;4.40;95.10;;;;;;4423705;32;20212;-63
2020/12/30 10:06:19;;;;;;;25.13;15.00;;;4.40;95.40;;;;;;4432131;32;20198;-64
2020/12/30 10:08:53;;;;;;;33.10;17.20;;;4.50;95.60;;;;;;4413715;32;20149;-63
2020/12/30 10:11:22;;;;;;;27.07;16.27;;;4.50;95.50;;;;;;4422908;32;20204;-64
2020/12/30 10:14:06;;;;;;;26.87;16.00;;;4.50;95.50;;;;;;4421601;32;20230;-64
2020/12/30 10:16:36;;;;;;;26.60;17.07;;;4.70;95.50;;;;;;4419055;32;20259;-64
2020/12/30 10:19:08;;;;;;;35.13;18.53;;;4.60;95.50;;;;;;4421049;32;20166;-63
2020/12/30 10:21:37;;;;;;;27.77;16.73;;;4.50;95.60;;;;;;4421455;32;20614;-65
2020/12/30 10:24:15;;;;;;;31.80;18.07;;;4.70;95.50;;;;;;4419958;32;20308;-64
2020/12/30 10:26:41;;;;;;;32.87;17.60;;;4.60;95.60;;;;;;4420559;32;20188;-67
2020/12/30 10:29:07;;;;;;;28.10;16.93;;;4.70;96.10;;;;;;4421787;32;20185;-62
2020/12/30 10:31:41;;;;;;;27.03;15.73;;;4.80;96.10;;;;;;4421568;32;20226;-63
2020/12/30 10:34:11;;;;;;;25.13;16.33;;;4.90;96.00;;;;;;4421609;32;20167;-64
2020/12/30 10:36:50;;;;;;;27.60;17.63;;;4.90;95.70;;;;;;4419482;32;20544;-68
2020/12/30 10:39:25;;;;;;;29.97;17.13;;;4.80;95.50;;;;;;4420985;32;20163;-64
2020/12/30 10:41:54;;;;;;;26.37;17.37;;;4.80;95.40;;;;;;4421527;32;20179;-64
2020/12/30 10:44:25;;;;;;;25.87;15.77;;;4.80;95.30;;;;;;4421083;32;20164;-65
2020/12/30 10:49:32;;;;;;;25.73;15.13;;;4.80;95.40;;;;;;4414710;32;20179;-62
2020/12/30 10:52:02;;;;;;;27.37;15.03;;;4.70;95.30;;;;;;4417040;32;20175;-64
2020/12/30 10:54:33;;;;;;;25.90;15.80;;;4.70;95.30;;;;;;4419246;32;20599;-64
2020/12/30 10:57:01;;;;;;;25.77;14.70;;;4.80;95.30;;;;;;4418177;32;20169;-64
2020/12/30 10:59:33;;;;;;;22.13;12.97;;;4.80;95.40;;;;;;4420513;32;20179;-64
2020/12/30 11:02:01;;;;;;;24.93;13.87;;;4.90;95.50;;;;;;4418389;32;20175;-65
2020/12/30 11:04:46;;;;;;;20.07;12.83;;;4.90;95.50;;;;;;4418914;32;20171;-64
2020/12/30 11:07:15;;;;;;;16.57;12.37;;;5.00;95.80;;;;;;4419697;32;20498;-64
2020/12/30 11:09:51;;;;;;;18.07;12.23;;;5.10;95.90;;;;;;4419049;32;20151;-64
2020/12/30 11:12:30;;;;;;;19.03;11.03;;;5.30;96.90;;;;;;4418483;32;20160;-66
2020/12/30 11:14:56;;;;;;;13.33;10.60;;;5.40;97.10;;;;;;4417892;32;20223;-65
2020/12/30 11:17:26;;;;;;;17.97;9.87;;;5.60;97.20;;;;;;4418900;32;20179;-63
2020/12/30 11:19:55;;;;;;;12.07;8.27;;;5.70;97.20;;;;;;4419681;32;20182;-63
2020/12/30 11:22:39;;;;;;;8.60;5.77;;;5.60;95.90;;;;;;4420827;32;20194;-64
2020/12/30 11:25:09;;;;;;;7.67;4.90;;;5.40;95.40;;;;;;4420404;32;20441;-64
2020/12/30 11:27:55;;;;;;;9.70;5.20;;;5.30;95.20;;;;;;4419890;32;20175;-63
2020/12/30 11:30:27;;;;;;;9.60;4.77;;;5.40;95.20;;;;;;4420276;32;20163;-64
2020/12/30 11:32:54;;;;;;;8.10;4.73;;;5.30;95.20;;;;;;4419632;32;20204;-67
2020/12/30 11:35:36;;;;;;;6.27;4.33;;;5.30;95.20;;;;;;4421545;32;20183;-64
2020/12/30 11:38:04;;;;;;;6.20;4.00;;;5.40;95.40;;;;;;4418409;32;20227;-66
2020/12/30 11:40:38;;;;;;;4.20;3.03;;;5.60;96.20;;;;;;4420847;32;20155;-64
2020/12/30 11:43:12;;;;;;;6.03;2.93;;;5.80;96.90;;;;;;4422353;32;20209;-63
2020/12/30 11:45:44;;;;;;;2.43;1.97;;;6.00;97.20;;;;;;4421243;32;20648;-64
2020/12/30 11:48:12;;;;;;;4.37;2.10;;;6.10;96.80;;;;;;4420786;32;20506;-66
2020/12/30 11:50:47;;;;;;;4.67;1.70;;;6.40;96.70;;;;;;4407490;32;20506;-63
2020/12/30 11:53:16;;;;;;;3.00;1.57;;;6.40;95.50;;;;;;4420482;32;21948;-68
2020/12/30 11:55:43;;;;;;;2.03;1.23;;;6.30;94.80;;;;;;4411156;32;20178;-64
2020/12/30 11:58:11;;;;;;;3.57;1.60;;;6.20;94.30;;;;;;4410419;32;20152;-67
2020/12/30 12:00:49;;;;;;;1.70;1.17;;;6.10;94.50;;;;;;4421790;32;20194;-67
2020/12/30 12:03:20;;;;;;;2.70;1.73;;;6.10;94.10;;;;;;4419659;32;20493;-63
2020/12/30 12:05:55;;;;;;;2.33;1.10;;;6.10;93.80;;;;;;4417111;32;20152;-63
2020/12/30 12:11:19;;;;;;;3.80;1.20;;;6.10;94.00;;;;;;4419795;32;20277;-66
2020/12/30 12:13:45;;;;;;;3.23;1.07;;;6.00;93.80;;;;;;4420428;32;20246;-63
2020/12/30 12:16:12;;;;;;;3.53;1.80;;;6.00;93.10;;;;;;4420119;32;20224;-65
2020/12/30 12:18:45;;;;;;;4.50;1.10;;;5.90;93.10;;;;;;4407526;32;20203;-64
2020/12/30 12:21:12;;;;;;;3.57;0.97;;;5.80;93.00;;;;;;4401913;32;20179;-63
2020/12/30 12:23:43;;;;;;;4.17;1.47;;;5.90;93.00;;;;;;4403712;32;20184;-65
2020/12/30 12:26:45;;;;;;;7.50;1.47;;;5.90;93.00;;;;;;4405049;32;20147;-64
2020/12/30 12:29:34;;;;;;;4.23;1.50;;;6.10;93.00;;;;;;4403470;32;20160;-63
2020/12/30 12:32:12;;;;;;;6.40;1.50;;;6.10;92.40;;;;;;4402673;32;20234;-66
2020/12/30 12:34:47;;;;;;;4.20;1.30;;;6.10;92.10;;;;;;4402199;32;20152;-63
2020/12/30 12:37:18;;;;;;;6.03;1.90;;;6.10;92.50;;;;;;4401730;32;20636;-66
2020/12/30 12:39:51;;;;;;;7.90;1.70;;;6.00;92.70;;;;;;4406162;32;20530;-65
2020/12/30 12:42:29;;;;;;;4.60;2.20;;;6.20;92.70;;;;;;4402221;32;20235;-64
2020/12/30 12:44:57;;;;;;;9.43;2.93;;;6.30;92.50;;;;;;4402011;32;20198;-66
2020/12/30 12:47:32;;;;;;;5.80;2.60;;;6.30;92.30;;;;;;4402960;32;20151;-65
2020/12/30 12:50:06;;;;;;;5.50;2.37;;;6.30;92.30;;;;;;4400072;32;20215;-65
2020/12/30 12:52:40;;;;;;;8.37;2.90;;;6.30;92.30;;;;;;4402506;32;20201;-64
2020/12/30 12:55:09;;;;;;;8.53;2.83;;;6.20;92.50;;;;;;4401000;32;20160;-66
2020/12/30 12:57:36;;;;;;;6.67;3.13;;;6.10;92.60;;;;;;4401455;32;20175;-64
2020/12/30 13:00:11;;;;;;;8.47;3.30;;;6.30;92.80;;;;;;4403437;32;20566;-63
2020/12/30 13:02:40;;;;;;;4.87;2.97;;;6.40;92.70;;;;;;4401975;32;20163;-67
2020/12/30 13:05:08;;;;;;;7.20;2.87;;;6.50;92.30;;;;;;4400819;32;20186;-64